Time;durP1;ratioP1;P1;durP2;ratioP2;P2;SDS_P1;SDS_P2;PMS_P1;PMS_P2;Temp;Humidity;BMP_temperature;BMP_pressure;BME280_temperature;BME280_humidity;BME280_pressure;Samples;Min_cycle;Max_cycle;Signal;HPM_P1;HPM_P2
2021/11/25 00:01:37;;;;;;;44.03;19.73;;;;;;;0.09;73.30;100269.78;5009067;28;105912;-70
2021/11/25 00:04:03;;;;;;;36.15;18.30;;;;;;;0.06;73.72;100262.94;5008598;28;106172;-69
2021/11/25 00:06:29;;;;;;;33.38;17.25;;;;;;;0.03;73.67;100259.69;5009442;28;106627;-68
2021/11/25 00:08:54;;;;;;;35.92;16.30;;;;;;;-0.04;73.51;100257.47;5009296;28;105899;-69
2021/11/25 00:11:20;;;;;;;35.33;18.67;;;;;;;-0.10;73.58;100260.47;5009325;28;105972;-68
2021/11/25 00:13:45;;;;;;;30.30;16.38;;;;;;;-0.15;73.55;100251.25;5009593;28;106829;-69
2021/11/25 00:16:11;;;;;;;33.20;18.33;;;;;;;-0.20;73.97;100248.94;5009414;28;106535;-69
2021/11/25 00:18:36;;;;;;;29.25;15.98;;;;;;;-0.25;73.84;100246.59;5009310;28;105919;-69
2021/11/25 00:21:02;;;;;;;31.38;15.68;;;;;;;-0.28;74.10;100236.34;5009672;28;106127;-69
2021/11/25 00:23:27;;;;;;;25.85;14.32;;;;;;;-0.30;74.05;100238.22;5009610;28;105939;-68
2021/11/25 00:25:52;;;;;;;24.98;13.45;;;;;;;-0.32;74.19;100239.28;5009287;28;105992;-69
2021/11/25 00:28:18;;;;;;;22.70;13.02;;;;;;;-0.36;74.34;100236.81;5009075;28;106013;-70
2021/11/25 00:30:43;;;;;;;24.38;13.48;;;;;;;-0.38;74.37;100230.88;5009666;28;105842;-69
2021/11/25 00:33:09;;;;;;;23.35;13.00;;;;;;;-0.39;74.23;100236.22;5009017;28;106270;-68
2021/11/25 00:35:35;;;;;;;27.95;15.20;;;;;;;-0.41;74.17;100227.59;5008779;28;105956;-70
2021/11/25 00:38:01;;;;;;;23.60;15.18;;;;;;;-0.47;74.25;100228.84;5008748;28;106199;-68
2021/11/25 00:40:26;;;;;;;85.72;43.22;;;;;;;-0.52;74.29;100217.81;5009181;28;106092;-69
2021/11/25 00:42:52;;;;;;;32.15;15.48;;;;;;;-0.53;74.68;100222.22;5009057;28;106076;-66
2021/11/25 00:45:18;;;;;;;28.20;14.30;;;;;;;-0.54;74.82;100214.47;5007752;28;105795;-68
2021/11/25 00:47:44;;;;;;;27.00;13.50;;;;;;;-0.56;74.69;100216.34;5008167;28;106414;-70
2021/11/25 00:50:12;;;;;;;27.80;13.57;;;;;;;-0.58;75.01;100205.13;5009514;28;105914;-68
2021/11/25 00:52:38;;;;;;;30.40;15.70;;;;;;;-0.62;74.83;100204.47;5007845;28;106272;-68
2021/11/25 00:55:05;;;;;;;26.88;14.45;;;;;;;-0.64;74.71;100197.66;5008539;28;106050;-69
2021/11/25 00:57:30;;;;;;;32.25;15.25;;;;;;;-0.71;74.83;100205.06;5008626;28;105891;-71
2021/11/25 00:59:56;;;;;;;35.75;16.52;;;;;;;-0.74;75.39;100197.41;5009188;28;106300;-68
2021/11/25 01:02:21;;;;;;;33.53;15.20;;;;;;;-0.79;74.76;100210.81;5007082;28;106249;-68
2021/11/25 01:04:48;;;;;;;35.22;16.02;;;;;;;-0.80;75.26;100200.44;5008187;28;106822;-68
2021/11/25 01:07:14;;;;;;;34.97;17.38;;;;;;;-0.82;75.17;100184.84;5008443;28;106576;-69
2021/11/25 01:09:40;;;;;;;34.00;16.90;;;;;;;-0.84;75.76;100199.78;5009132;28;105914;-68
2021/11/25 01:12:06;;;;;;;32.00;16.50;;;;;;;-0.87;75.45;100187.72;5008739;28;106244;-69
2021/11/25 01:14:34;;;;;;;35.03;16.33;;;;;;;-0.89;75.34;100186.16;5007297;28;106062;-68
2021/11/25 01:17:00;;;;;;;31.30;16.63;;;;;;;-0.91;75.84;100181.00;5008157;28;105870;-69
2021/11/25 01:19:26;;;;;;;33.80;17.90;;;;;;;-0.93;75.86;100177.69;5009266;28;105936;-70
2021/11/25 01:21:53;;;;;;;32.70;17.20;;;;;;;-0.93;75.70;100171.59;5008532;28;106387;-69
2021/11/25 01:24:18;;;;;;;34.75;18.23;;;;;;;-0.98;75.60;100171.06;5007326;28;106786;-69
2021/11/25 01:26:44;;;;;;;33.40;17.17;;;;;;;-1.01;76.02;100166.84;5007977;28;106115;-69
2021/11/25 01:29:11;;;;;;;29.98;15.98;;;;;;;-1.04;76.09;100167.88;5009153;28;105970;-69
2021/11/25 01:31:37;;;;;;;32.95;15.48;;;;;;;-1.07;76.02;100162.81;5007071;28;106206;-70
2021/11/25 01:34:02;;;;;;;41.08;17.50;;;;;;;-1.11;75.66;100153.50;5008193;28;106330;-69
2021/11/25 01:36:28;;;;;;;34.03;17.48;;;;;;;-1.12;75.85;100149.22;5007863;28;106270;-70
2021/11/25 01:38:53;;;;;;;32.92;17.08;;;;;;;-1.15;76.33;100146.78;5009019;28;105889;-69
2021/11/25 01:41:20;;;;;;;29.63;16.55;;;;;;;-1.15;76.32;100135.50;5007640;28;106194;-68
2021/11/25 01:43:46;;;;;;;31.67;17.88;;;;;;;-1.20;75.85;100133.19;5007101;28;105823;-68
2021/11/25 01:46:17;;;;;;;32.55;16.80;;;;;;;-1.24;76.22;100132.53;5007971;28;105846;-69
2021/11/25 01:48:44;;;;;;;38.97;17.88;;;;;;;-1.26;76.42;100133.56;5008489;28;106032;-71
2021/11/25 01:51:09;;;;;;;37.13;18.00;;;;;;;-1.31;76.47;100125.16;5007506;28;105682;-70
2021/11/25 01:53:36;;;;;;;37.67;20.10;;;;;;;-1.34;76.58;100122.72;4989902;28;105932;-70
2021/11/25 01:56:04;;;;;;;38.00;20.63;;;;;;;-1.37;76.49;100122.00;5006983;28;105865;-69
2021/11/25 01:58:30;;;;;;;35.30;17.67;;;;;;;-1.38;76.74;100111.63;5008130;28;106043;-68
2021/11/25 02:00:57;;;;;;;36.05;19.50;;;;;;;-1.40;76.34;100111.72;5007938;28;106075;-69
2021/11/25 02:03:24;;;;;;;36.63;19.35;;;;;;;-1.42;76.48;100116.22;5007427;28;106107;-71
2021/11/25 02:05:50;;;;;;;39.47;20.13;;;;;;;-1.43;76.96;100106.69;5007621;28;105956;-69
2021/11/25 02:08:15;;;;;;;38.20;19.58;;;;;;;-1.44;76.31;100106.78;5008612;28;106095;-69
2021/11/25 02:10:45;;;;;;;36.90;20.23;;;;;;;-1.45;76.59;100103.34;5007061;28;106433;-70
2021/11/25 02:13:11;;;;;;;37.77;20.00;;;;;;;-1.46;77.04;100095.59;5007296;28;106165;-69
2021/11/25 02:15:37;;;;;;;40.42;20.77;;;;;;;-1.47;76.85;100091.31;5007609;28;106192;-70
2021/11/25 02:18:09;;;;;;;42.95;20.75;;;;;;;-1.51;77.19;100093.25;5008334;28;105961;-74
2021/11/25 02:20:39;;;;;;;42.47;21.05;;;;;;;-1.53;76.88;100092.53;5007629;28;106239;-69
2021/11/25 02:23:06;;;;;;;37.00;21.25;;;;;;;-1.57;76.83;100085.81;5007579;28;105941;-68
2021/11/25 02:25:32;;;;;;;41.78;21.75;;;;;;;-1.62;76.61;100086.09;5007132;28;105982;-68
2021/11/25 02:27:58;;;;;;;34.85;20.65;;;;;;;-1.64;77.41;100081.88;5009864;28;106108;-68
2021/11/25 02:30:24;;;;;;;40.47;21.88;;;;;;;-1.66;77.16;100073.31;5009692;28;106363;-70
2021/11/25 02:32:50;;;;;;;41.78;21.38;;;;;;;-1.71;77.03;100077.06;5010934;28;105961;-70
2021/11/25 02:35:22;;;;;;;35.15;21.92;;;;;;;-1.72;76.80;100062.31;5010797;28;106005;-69
2021/11/25 02:37:49;;;;;;;44.70;23.02;;;;;;;-1.77;77.08;100064.38;5011696;28;105958;-67
2021/11/25 02:40:34;;;;;;;55.65;28.67;;;;;;;-1.77;76.89;100060.94;5010640;28;105837;-69
2021/11/25 02:43:06;;;;;;;72.55;37.95;;;;;;;-1.80;77.26;100055.91;5010495;28;105983;-69
2021/11/25 02:45:42;;;;;;;64.07;38.67;;;;;;;-1.84;77.44;100050.00;5009796;28;105875;-70
2021/11/25 02:48:08;;;;;;;52.05;33.10;;;;;;;-1.88;76.88;100045.91;5011514;28;105942;-69
2021/11/25 02:50:33;;;;;;;58.33;34.78;;;;;;;-1.95;77.25;100029.78;5009854;28;106547;-70
2021/11/25 02:52:59;;;;;;;53.38;31.67;;;;;;;-1.97;77.05;100030.81;5010337;28;106582;-67
2021/11/25 02:55:24;;;;;;;48.55;24.70;;;;;;;-2.00;77.45;100025.78;5010454;28;105982;-68
2021/11/25 02:57:50;;;;;;;42.25;23.42;;;;;;;-1.99;77.83;100024.84;5011080;28;106124;-69
2021/11/25 03:00:21;;;;;;;42.92;23.08;;;;;;;-2.01;77.48;100016.25;5010755;28;105791;-68
2021/11/25 03:02:56;;;;;;;41.85;22.65;;;;;;;-2.05;77.70;100011.22;5009968;28;106698;-71
2021/11/25 03:05:22;;;;;;;37.03;21.23;;;;;;;-2.09;77.72;100007.13;5010200;28;105786;-70
2021/11/25 03:07:48;;;;;;;42.95;21.95;;;;;;;-2.12;77.94;100009.06;5010833;28;106426;-69
2021/11/25 03:10:13;;;;;;;40.65;23.15;;;;;;;-2.14;77.64;100001.34;5010474;28;106641;-68
2021/11/25 03:12:39;;;;;;;45.58;26.33;;;;;;;-2.16;77.40;100005.84;5010051;28;106350;-68
2021/11/25 03:15:05;;;;;;;48.55;26.42;;;;;;;-2.19;77.63;99999.94;5010218;28;105947;-75
2021/11/25 03:17:30;;;;;;;47.13;25.27;;;;;;;-2.21;78.17;100007.88;5010882;28;105851;-69
2021/11/25 03:19:56;;;;;;;46.65;25.10;;;;;;;-2.23;78.25;99991.47;5009570;28;106335;-68
2021/11/25 03:22:21;;;;;;;50.45;28.70;;;;;;;-2.24;77.61;99989.81;5009597;28;108000;-69
2021/11/25 03:24:47;;;;;;;44.65;23.83;;;;;;;-2.26;78.33;99984.66;5009815;28;106079;-69
2021/11/25 03:27:13;;;;;;;44.55;21.83;;;;;;;-2.27;77.63;99983.00;5010807;28;106353;-69
2021/11/25 03:29:38;;;;;;;41.85;21.88;;;;;;;-2.31;77.57;99978.91;5009965;28;106315;-71
2021/11/25 03:32:04;;;;;;;37.58;21.67;;;;;;;-2.35;77.75;99976.53;5009934;28;106825;-70
2021/11/25 03:34:30;;;;;;;39.80;22.70;;;;;;;-2.39;78.30;99963.69;5009797;28;106469;-76
2021/11/25 03:36:55;;;;;;;42.90;22.95;;;;;;;-2.40;78.29;99964.63;5010622;28;105993;-75
2021/11/25 03:39:21;;;;;;;118.40;59.20;;;;;;;-2.39;78.54;99955.88;5010001;28;106342;-78
2021/11/25 03:41:46;;;;;;;49.97;22.08;;;;;;;-2.39;77.95;99965.47;5009144;28;105931;-71
2021/11/25 03:44:11;;;;;;;41.58;21.95;;;;;;;-2.39;78.81;99953.25;5009689;28;105878;-71
2021/11/25 03:46:37;;;;;;;43.33;25.23;;;;;;;-2.39;78.86;99947.22;5010180;28;106789;-69
2021/11/25 03:49:03;;;;;;;47.72;22.88;;;;;;;-2.43;78.38;99943.13;5009125;28;105926;-72
2021/11/25 03:51:28;;;;;;;44.78;25.38;;;;;;;-2.47;77.95;99934.63;5009501;28;106669;-69
2021/11/25 03:53:54;;;;;;;38.03;21.92;;;;;;;-2.52;78.75;99928.00;5009452;28;106118;-69
2021/11/25 03:56:20;;;;;;;42.97;22.83;;;;;;;-2.56;78.31;99929.97;5009924;28;105897;-69
2021/11/25 03:58:46;;;;;;;36.15;22.52;;;;;;;-2.58;78.82;99922.22;5009695;28;105825;-71
2021/11/25 04:01:11;;;;;;;50.20;23.35;;;;;;;-2.62;78.82;99917.31;5009228;28;105980;-70
2021/11/25 04:03:38;;;;;;;38.92;22.75;;;;;;;-2.63;78.74;99916.44;5009060;28;106136;-71
2021/11/25 04:06:03;;;;;;;41.05;21.45;;;;;;;-2.65;78.53;99907.91;5009932;28;106040;-71
2021/11/25 04:08:29;;;;;;;38.83;20.92;;;;;;;-2.68;78.40;99907.22;5009149;28;106227;-71
2021/11/25 04:10:55;;;;;;;45.95;23.80;;;;;;;-2.69;78.33;99902.94;5007884;28;105968;-72
2021/11/25 04:13:20;;;;;;;47.08;23.83;;;;;;;-2.69;79.03;99901.19;5008887;28;106530;-72
2021/11/25 04:15:46;;;;;;;38.13;21.08;;;;;;;-2.69;78.62;99895.13;5009989;28;106128;-72
2021/11/25 04:18:12;;;;;;;45.47;22.90;;;;;;;-2.67;79.13;99894.09;4991070;28;106233;-73
2021/11/25 04:20:38;;;;;;;45.05;22.95;;;;;;;-2.68;79.04;99891.59;4990274;28;107765;-72
2021/11/25 04:23:04;;;;;;;43.22;22.80;;;;;;;-2.70;78.64;99888.25;5008660;28;105847;-71
2021/11/25 04:25:30;;;;;;;37.42;21.55;;;;;;;-2.76;78.66;99885.06;5009608;28;105847;-71
2021/11/25 04:27:56;;;;;;;41.78;23.13;;;;;;;-2.79;79.00;99884.41;5008220;28;106257;-72
2021/11/25 04:35:34;;;;;;;41.47;22.27;;;;;;;-2.89;78.84;99874.53;5010029;28;106399;-69
2021/11/25 04:37:59;;;;;;;48.05;23.50;;;;;;;-2.87;79.36;99877.06;5007889;28;105906;-69
2021/11/25 04:40:25;;;;;;;47.03;22.27;;;;;;;-2.84;79.58;99871.66;5008345;28;106641;-70
2021/11/25 04:42:51;;;;;;;46.70;22.45;;;;;;;-2.86;79.36;99863.06;5008702;28;106163;-70
2021/11/25 04:45:16;;;;;;;48.10;24.95;;;;;;;-2.86;79.60;99860.47;5008639;28;105778;-69
2021/11/25 04:47:42;;;;;;;39.17;22.27;;;;;;;-2.85;79.30;99854.34;5009258;28;105725;-74
2021/11/25 04:50:08;;;;;;;40.40;23.80;;;;;;;-2.84;79.64;99845.59;5008037;28;106578;-71
2021/11/25 04:52:33;;;;;;;47.10;24.88;;;;;;;-2.84;79.52;99835.16;5009643;28;105919;-70
2021/11/25 04:54:59;;;;;;;44.55;25.55;;;;;;;-2.84;80.02;99835.16;5009023;28;106564;-71
2021/11/25 04:57:24;;;;;;;38.42;24.40;;;;;;;-2.83;79.77;99829.03;5008664;28;106157;-69
2021/11/25 04:59:50;;;;;;;30.63;20.02;;;;;;;-2.85;80.02;99833.47;5008077;28;105922;-70
2021/11/25 06:20:47;;;;;;;22.50;13.75;;;;;;;-4.15;81.10;99793.28;4984981;28;106153;-66
2021/11/25 06:23:13;;;;;;;26.88;17.92;;;;;;;-4.10;81.09;99788.66;4985553;28;106024;-78
2021/11/25 06:25:40;;;;;;;41.05;21.15;;;;;;;-4.04;81.31;99775.31;4985219;28;105769;-74
2021/11/25 06:28:07;;;;;;;40.00;18.02;;;;;;;-3.92;81.41;99776.38;4985153;28;106838;-78
2021/11/25 06:30:33;;;;;;;40.30;20.10;;;;;;;-3.81;81.82;99774.00;4984978;28;106268;-69
2021/11/25 06:32:58;;;;;;;40.45;20.77;;;;;;;-3.68;81.94;99775.88;4984371;28;105937;-69
2021/11/25 06:35:23;;;;;;;40.90;22.17;;;;;;;-3.55;81.74;99776.84;4984875;28;106213;-71
2021/11/25 06:37:53;;;;;;;30.52;19.38;;;;;;;-3.43;81.73;99781.31;4984756;28;105968;-72
2021/11/25 06:40:28;;;;;;;37.33;21.95;;;;;;;-3.28;82.22;99778.72;4984318;28;105938;-76
2021/11/25 06:42:55;;;;;;;42.72;20.20;;;;;;;-3.11;82.12;99775.13;4985337;28;105966;-72
2021/11/25 06:45:22;;;;;;;33.35;19.42;;;;;;;-2.96;82.30;99774.16;4984348;28;106169;-75
2021/11/25 06:47:48;;;;;;;36.30;17.65;;;;;;;-2.81;82.29;99777.59;4984115;28;106249;-74
2021/11/25 06:50:17;;;;;;;16.45;10.88;;;;;;;-2.61;82.20;99780.72;4984046;28;105846;-72
2021/11/25 06:52:43;;;;;;;31.92;17.60;;;;;;;-2.27;83.27;99781.22;4985043;28;106039;-75
2021/11/25 06:55:10;;;;;;;31.50;16.77;;;;;;;-1.97;83.09;99767.13;4983681;28;106150;-73
2021/11/25 06:57:37;;;;;;;36.45;18.35;;;;;;;-1.68;82.40;99761.75;4984251;28;106133;-73
2021/11/25 07:00:09;;;;;;;28.85;16.15;;;;;;;-1.40;82.78;99760.75;4983665;28;106041;-73
2021/11/25 07:02:34;;;;;;;30.67;15.30;;;;;;;-1.14;82.80;99772.03;4984647;28;105982;-72
2021/11/25 07:05:02;;;;;;;21.45;13.07;;;;;;;-0.86;82.47;99760.50;4984072;28;106128;-67
2021/11/25 07:07:28;;;;;;;20.70;13.00;;;;;;;-0.43;83.09;99777.53;4983508;28;106314;-74
2021/11/25 07:09:53;;;;;;;13.23;8.85;;;;;;;-0.02;82.28;99765.84;4983602;28;105935;-73
2021/11/25 07:12:18;;;;;;;18.92;12.35;;;;;;;0.30;81.32;99770.50;4985394;28;105991;-74
2021/11/25 07:14:44;;;;;;;19.60;12.45;;;;;;;0.56;80.67;99757.22;4983935;28;105756;-74
2021/11/25 07:17:10;;;;;;;13.55;9.10;;;;;;;0.80;79.81;99758.91;4983882;28;105801;-70
2021/11/25 07:19:35;;;;;;;16.27;10.50;;;;;;;1.03;79.29;99772.88;4983868;28;106656;-71
2021/11/25 07:22:01;;;;;;;18.02;10.80;;;;;;;1.25;78.69;99761.53;4984249;28;105929;-70
2021/11/25 07:24:26;;;;;;;22.98;12.80;;;;;;;1.43;78.54;99763.66;4984264;28;106090;-73
2021/11/25 07:26:51;;;;;;;22.65;12.02;;;;;;;1.65;78.18;99757.50;4983577;28;105893;-73
2021/11/25 07:29:17;;;;;;;21.65;12.48;;;;;;;1.88;77.94;99752.22;4983775;28;105880;-68
2021/11/25 07:31:45;;;;;;;20.90;12.38;;;;;;;2.09;76.73;99754.84;4973446;28;105979;-69
2021/11/25 07:34:11;;;;;;;16.48;11.48;;;;;;;2.21;76.39;99759.09;4970475;28;106322;-68
2021/11/25 07:36:36;;;;;;;18.58;11.40;;;;;;;2.36;76.00;99752.59;4970349;28;106032;-70
2021/11/25 07:39:02;;;;;;;19.80;11.75;;;;;;;2.52;74.98;99751.28;4970644;28;106194;-76
2021/11/25 07:41:28;;;;;;;18.17;10.98;;;;;;;2.68;75.38;99740.31;4971451;28;105989;-74
2021/11/25 07:43:53;;;;;;;20.50;12.40;;;;;;;3.12;75.74;99748.00;4970769;28;106157;-80
2021/11/25 07:46:18;;;;;;;18.95;11.60;;;;;;;3.71;74.84;99752.41;4970309;28;106021;-75
2021/11/25 07:48:44;;;;;;;18.98;12.23;;;;;;;4.27;72.86;99751.88;4970193;28;106116;-74
2021/11/25 07:51:09;;;;;;;19.75;12.60;;;;;;;4.71;71.35;99741.66;4970865;28;105821;-74
2021/11/25 07:53:35;;;;;;;16.02;11.63;;;;;;;5.06;70.65;99727.78;4970200;28;106182;-75
2021/11/25 07:56:00;;;;;;;23.83;12.52;;;;;;;5.40;70.45;99723.72;4969915;28;106047;-74
2021/11/25 07:58:28;;;;;;;22.92;13.32;;;;;;;5.70;69.21;99735.75;4969826;28;106125;-75
2021/11/25 08:00:53;;;;;;;17.67;11.23;;;;;;;6.13;68.96;99727.25;4970489;28;105968;-73
2021/11/25 08:03:19;;;;;;;22.75;12.45;;;;;;;6.57;69.21;99724.59;4969918;28;106524;-68
2021/11/25 08:05:44;;;;;;;24.27;13.55;;;;;;;6.99;67.88;99717.72;4969898;28;106933;-71
2021/11/25 08:08:10;;;;;;;19.98;11.75;;;;;;;7.56;66.50;99725.00;4969930;28;106020;-72
2021/11/25 08:10:36;;;;;;;19.85;13.32;;;;;;;8.01;65.89;99721.13;4970277;28;105774;-69
2021/11/25 08:13:04;;;;;;;23.38;14.25;;;;;;;8.85;66.78;99715.56;4969683;28;106172;-69
2021/11/25 08:15:31;;;;;;;21.10;12.30;;;;;;;9.82;65.69;99717.09;4969136;28;106073;-70
2021/11/25 08:17:57;;;;;;;22.98;13.38;;;;;;;10.70;65.02;99709.53;4969410;28;105941;-71
2021/11/25 08:20:23;;;;;;;20.20;11.50;;;;;;;11.20;61.16;99703.66;4969470;28;105854;-70
2021/11/25 08:22:49;;;;;;;22.67;13.30;;;;;;;12.03;60.72;99714.81;4969489;28;106215;-70
2021/11/25 08:25:14;;;;;;;25.70;13.55;;;;;;;12.51;58.56;99685.63;4968704;28;107620;-69
2021/11/25 08:27:40;;;;;;;25.80;16.83;;;;;;;13.38;58.27;99698.63;4969125;28;106009;-69
2021/11/25 08:30:08;;;;;;;22.55;13.23;;;;;;;14.02;55.42;99691.13;4969698;28;106482;-69
2021/11/25 08:32:34;;;;;;;17.58;11.25;;;;;;;14.06;51.06;99697.72;4969772;28;105989;-68
2021/11/25 08:35:00;;;;;;;19.13;12.52;;;;;;;14.29;50.58;99688.47;4969067;28;105691;-69
2021/11/25 08:37:25;;;;;;;20.75;11.68;;;;;;;14.24;49.13;99686.41;4968991;28;106131;-71
2021/11/25 08:39:51;;;;;;;20.25;13.90;;;;;;;14.19;49.50;99691.56;4969674;28;105828;-72
2021/11/25 08:42:16;;;;;;;19.90;13.00;;;;;;;14.11;46.25;99689.91;4968001;28;106218;-72
2021/11/25 08:44:42;;;;;;;13.10;8.43;;;;;;;14.03;43.37;99682.06;4969020;28;105984;-73
2021/11/25 08:47:08;;;;;;;19.98;12.80;;;;;;;14.58;47.25;99672.97;4969719;28;106196;-73
2021/11/25 08:49:33;;;;;;;22.27;14.25;;;;;;;14.85;46.29;99679.94;4969509;28;105911;-72
2021/11/25 08:51:59;;;;;;;21.08;13.10;;;;;;;15.08;45.38;99684.00;4968809;28;106226;-72
2021/11/25 08:54:25;;;;;;;23.25;15.30;;;;;;;15.13;45.30;99678.84;4969139;28;106099;-71
2021/11/25 08:56:52;;;;;;;20.83;13.73;;;;;;;15.27;43.33;99676.06;4968616;28;106049;-72
2021/11/25 08:59:18;;;;;;;14.48;10.30;;;;;;;15.49;41.05;99680.09;4970274;28;105959;-72
2021/11/25 09:01:44;;;;;;;21.88;14.95;;;;;;;15.73;42.51;99675.00;4967663;28;106227;-71
2021/11/25 09:04:10;;;;;;;25.38;14.90;;;;;;;16.27;42.38;99670.06;4968839;28;106269;-71
2021/11/25 09:06:35;;;;;;;20.95;14.50;;;;;;;16.97;41.05;99668.16;4968639;28;106195;-72
2021/11/25 09:09:03;;;;;;;21.48;13.00;;;;;;;17.22;36.80;99674.25;4969242;28;106074;-68
2021/11/25 09:11:28;;;;;;;17.88;12.35;;;;;;;17.30;36.30;99666.91;4969079;28;106135;-68
2021/11/25 09:13:53;;;;;;;20.52;13.95;;;;;;;17.50;36.64;99670.16;4968376;28;105929;-69
2021/11/25 09:16:19;;;;;;;19.35;13.27;;;;;;;17.20;36.59;99667.47;4968877;28;106733;-69
2021/11/25 09:18:45;;;;;;;22.88;14.45;;;;;;;17.74;37.71;99667.53;4967536;28;106213;-67
2021/11/25 09:21:11;;;;;;;17.60;9.93;;;;;;;17.73;33.46;99663.22;4968905;28;106102;-68
2021/11/25 09:23:37;;;;;;;20.88;14.73;;;;;;;17.40;33.19;99659.09;4969056;28;106166;-68
2021/11/25 09:26:03;;;;;;;21.17;14.23;;;;;;;17.69;34.43;99653.94;4951138;28;106554;-69
2021/11/25 09:28:28;;;;;;;18.92;13.38;;;;;;;17.59;32.58;99652.63;4948551;28;105964;-70
2021/11/25 09:30:54;;;;;;;21.13;15.05;;;;;;;18.17;33.03;99634.13;4949358;28;106581;-71
2021/11/25 09:33:21;;;;;;;20.05;13.27;;;;;;;18.16;31.00;99632.47;4949220;28;105892;-70
2021/11/25 09:35:48;;;;;;;20.60;13.93;;;;;;;17.74;31.21;99632.50;4949238;28;106216;-70
2021/11/25 09:38:14;;;;;;;21.05;15.43;;;;;;;18.56;31.13;99636.31;4949826;28;105794;-70
2021/11/25 09:40:42;;;;;;;19.48;17.77;;;;;;;18.52;29.95;99630.59;4949022;28;106253;-69
2021/11/25 09:43:11;;;;;;;22.25;17.15;;;;;;;18.70;30.53;99624.22;4946539;28;106031;-71
2021/11/25 09:45:40;;;;;;;22.80;15.70;;;;;;;19.00;30.51;99614.31;4945761;28;106102;-72
2021/11/25 09:48:10;;;;;;;23.55;16.33;;;;;;;19.67;29.72;99612.81;4947050;28;106317;-74
2021/11/25 09:50:39;;;;;;;19.92;14.02;;;;;;;19.36;28.63;99612.31;4947116;28;107195;-71
2021/11/25 09:53:08;;;;;;;17.45;13.20;;;;;;;19.18;27.93;99614.16;4946772;28;106520;-70
2021/11/25 09:55:37;;;;;;;24.42;15.85;;;;;;;18.63;28.53;99599.28;4945056;28;106954;-71
2021/11/25 09:58:03;;;;;;;23.70;15.75;;;;;;;18.44;28.62;99599.41;4948799;28;106276;-71
2021/11/25 10:00:32;;;;;;;17.42;11.98;;;;;;;18.08;28.53;99600.47;4947448;28;106139;-70
2021/11/25 10:02:58;;;;;;;19.17;11.85;;;;;;;17.98;28.31;99616.44;4946041;28;106021;-72
2021/11/25 10:05:24;;;;;;;14.90;10.25;;;;;;;18.00;28.64;99598.13;4948562;28;105920;-69
2021/11/25 10:07:50;;;;;;;20.52;13.70;;;;;;;18.61;28.73;99591.41;4948842;28;106772;-73
2021/11/25 10:10:22;;;;;;;25.10;14.55;;;;;;;18.64;27.95;99589.28;4948825;28;106691;-73
2021/11/25 10:12:48;;;;;;;16.20;11.38;;;;;;;18.35;28.47;99597.31;4948240;28;106024;-71
2021/11/25 10:15:35;;;;;;;20.80;13.80;;;;;;;18.08;28.08;99576.22;4948414;28;105974;-71
2021/11/25 10:18:19;;;;;;;18.73;12.32;;;;;;;18.02;28.51;99572.59;4948851;28;106018;-71
2021/11/25 10:20:48;;;;;;;22.83;15.20;;;;;;;17.65;28.67;99582.75;4948498;28;106145;-70
2021/11/25 10:23:15;;;;;;;20.95;14.68;;;;;;;17.96;28.78;99575.41;4948021;28;106133;-68
2021/11/25 10:25:56;;;;;;;23.40;13.63;;;;;;;18.24;28.33;99578.19;4948360;28;106081;-68
2021/11/25 10:28:30;;;;;;;23.95;15.13;;;;;;;19.03;28.38;99576.88;4948817;28;105850;-67
2021/11/25 10:31:20;;;;;;;20.23;13.82;;;;;;;17.91;27.92;99566.16;4948360;28;106356;-67
2021/11/25 10:34:01;;;;;;;19.55;13.65;;;;;;;16.01;30.43;99585.16;4947186;28;106466;-68
2021/11/25 10:37:25;;;;;;;19.70;11.32;;;;;;;13.78;33.32;99580.94;4947846;28;106125;-67
2021/11/25 10:42:00;;;;;;;21.35;13.27;;;;;;;14.70;33.12;99562.22;4948123;28;105784;-67
2021/11/25 10:44:30;;;;;;;22.90;14.88;;;;;;;15.17;32.22;99561.16;4948023;28;105944;-67
2021/11/25 10:46:56;;;;;;;;;;;;;;;15.09;32.62;99548.84;4948165;28;105953;-66
2021/11/25 10:49:35;;;;;;;24.40;15.43;;;;;;;13.02;34.22;99552.63;4949028;28;106119;-67
2021/11/25 10:52:07;;;;;;;26.48;15.80;;;;;;;11.64;36.41;99543.44;4947955;28;106611;-69
2021/11/25 10:54:33;;;;;;;24.08;15.75;;;;;;;11.02;38.23;99539.59;4948021;28;106235;-68
2021/11/25 10:57:01;;;;;;;24.60;15.15;;;;;;;10.66;38.67;99543.94;4948188;28;105870;-68
2021/11/25 10:59:37;;;;;;;18.73;12.20;;;;;;;11.28;39.84;99536.38;4948041;28;105902;-69
2021/11/25 11:02:18;;;;;;;25.05;14.73;;;;;;;13.88;37.31;99537.69;4948102;28;105825;-68
2021/11/25 11:04:45;;;;;;;20.45;13.07;;;;;;;14.82;34.25;99532.91;4948147;28;105858;-69
2021/11/25 11:07:26;;;;;;;24.45;13.57;;;;;;;12.98;35.14;99532.66;4958797;28;106238;-67
2021/11/25 11:09:53;;;;;;;23.48;14.82;;;;;;;11.31;37.70;99530.66;4971662;28;105787;-67
2021/11/25 11:12:45;;;;;;;21.40;13.82;;;;;;;10.32;39.54;99536.50;4971030;28;106401;-67
2021/11/25 11:15:26;;;;;;;25.05;13.90;;;;;;;9.57;40.65;99522.31;4970929;28;105821;-69
2021/11/25 11:20:28;;;;;;;26.50;15.50;;;;;;;8.81;42.31;99515.88;4969872;28;106038;-68
2021/11/25 11:22:59;;;;;;;25.67;15.32;;;;;;;8.37;42.76;99521.72;4970484;28;106252;-68
2021/11/25 11:25:27;;;;;;;24.45;15.32;;;;;;;8.18;43.65;99508.88;4970419;28;106031;-70
2021/11/25 11:27:56;;;;;;;23.30;16.15;;;;;;;8.13;43.46;99507.56;4970242;28;106003;-68
2021/11/25 11:30:22;;;;;;;24.02;15.07;;;;;;;8.07;43.73;99502.09;4970661;28;105885;-69
2021/11/25 11:32:49;;;;;;;24.67;14.70;;;;;;;7.83;44.36;99500.34;4970469;28;106114;-68
2021/11/25 11:35:19;;;;;;;24.98;14.48;;;;;;;7.77;44.57;99499.19;4970179;28;106642;-67
2021/11/25 11:37:45;;;;;;;22.13;14.40;;;;;;;7.66;45.23;99497.72;4969237;28;106168;-68
2021/11/25 11:40:11;;;;;;;21.75;13.77;;;;;;;7.63;45.11;99490.13;4970795;28;106057;-65
2021/11/25 11:42:37;;;;;;;27.23;15.20;;;;;;;7.56;45.16;99479.34;4969557;28;106229;-65
2021/11/25 11:45:04;;;;;;;24.13;15.07;;;;;;;7.49;45.37;99473.06;4970122;28;106019;-65
2021/11/25 11:47:31;;;;;;;28.30;16.02;;;;;;;7.45;45.96;99459.31;4968497;28;106778;-65
2021/11/25 11:50:09;;;;;;;24.45;15.73;;;;;;;7.36;46.30;99462.97;4970700;28;106016;-65
2021/11/25 11:52:55;;;;;;;33.65;16.95;;;;;;;7.28;46.34;99461.16;4969075;28;106205;-65
2021/11/25 11:55:40;;;;;;;26.55;14.63;;;;;;;7.27;45.55;99451.56;4949872;28;105960;-65
2021/11/25 11:58:30;;;;;;;29.63;15.15;;;;;;;7.40;45.86;99452.88;4950016;28;106511;-66
2021/11/25 12:01:16;;;;;;;25.20;14.90;;;;;;;7.68;46.27;99439.22;4951207;28;106012;-68
2021/11/25 12:03:48;;;;;;;25.60;16.27;;;;;;;7.95;46.27;99437.97;4949292;28;106123;-68
2021/11/25 12:06:35;;;;;;;27.23;15.35;;;;;;;8.05;45.19;99430.66;4949706;28;106739;-67
2021/11/25 12:09:24;;;;;;;26.13;14.25;;;;;;;8.18;45.82;99431.94;4950113;28;106103;-69
2021/11/25 12:11:52;;;;;;;26.52;15.88;;;;;;;8.36;45.88;99429.81;4951056;28;106410;-69
2021/11/25 12:14:26;;;;;;;26.75;15.77;;;;;;;8.35;45.45;99430.84;4950243;28;106248;-65
2021/11/25 12:16:56;;;;;;;25.52;16.98;;;;;;;8.06;45.18;99432.28;4949759;28;106042;-66
2021/11/25 12:19:25;;;;;;;27.77;15.23;;;;;;;7.82;46.01;99416.47;4949490;28;105984;-68
2021/11/25 12:21:54;;;;;;;35.53;16.60;;;;;;;7.66;46.80;99420.84;4949889;28;105842;-70
2021/11/25 12:24:44;;;;;;;25.67;14.20;;;;;;;7.52;47.00;99426.81;4949924;28;106968;-68
2021/11/25 12:27:17;;;;;;;28.53;17.17;;;;;;;7.50;46.49;99411.09;4949628;28;105930;-70
2021/11/25 12:29:49;;;;;;;27.52;16.15;;;;;;;7.55;46.58;99406.13;4949527;28;106451;-67
2021/11/25 12:32:36;;;;;;;27.75;16.45;;;;;;;9.09;48.41;99414.41;4949408;28;106097;-67
2021/11/25 12:35:24;;;;;;;25.00;15.02;;;;;;;11.66;45.08;99401.88;4947859;28;106197;-67
2021/11/25 12:38:01;;;;;;;25.60;15.90;;;;;;;11.11;41.23;99391.88;4947928;28;107414;-67
2021/11/25 12:40:26;;;;;;;25.58;15.00;;;;;;;10.26;42.87;99388.16;4949706;28;105911;-68
2021/11/25 12:42:53;;;;;;;22.25;14.27;;;;;;;9.59;43.08;99388.16;4950599;28;105957;-68